createdAt,value
2023-01-21T00:01:38.417Z,15.48
2023-01-21T00:05:20.354Z,14.75
2023-01-21T00:09:02.360Z,14.25
2023-01-21T00:12:44.551Z,13.52
2023-01-21T00:16:26.500Z,12.23
2023-01-21T00:20:09.077Z,11.98
2023-01-21T00:23:51.024Z,11.80
2023-01-21T00:27:32.933Z,11.95
2023-01-21T00:31:14.941Z,9.80
2023-01-21T00:34:56.908Z,10.77
2023-01-21T00:38:39.512Z,10.48
2023-01-21T00:42:21.447Z,10.45
2023-01-21T00:46:03.793Z,9.10
2023-01-21T00:49:45.709Z,10.70
2023-01-21T00:53:29.301Z,9.40
2023-01-21T00:57:11.381Z,10.57
2023-01-21T01:01:04.694Z,9.85
2023-01-21T01:04:46.705Z,9.95
2023-01-21T01:08:28.654Z,7.82
2023-01-21T01:12:10.584Z,7.57
2023-01-21T01:15:57.568Z,7.88
2023-01-21T01:19:39.541Z,7.80
2023-01-21T01:23:21.475Z,7.18
2023-01-21T01:27:03.415Z,7.18
2023-01-21T01:30:45.392Z,8.38
2023-01-21T01:34:27.354Z,6.95
2023-01-21T01:38:10.095Z,6.82
2023-01-21T01:41:53.274Z,8.15
2023-01-21T01:45:35.514Z,7.90
2023-01-21T01:49:21.413Z,8.45
2023-01-21T01:53:04.109Z,9.03
2023-01-21T01:56:50.673Z,8.63
2023-01-21T02:00:32.639Z,8.93
2023-01-21T02:04:20.120Z,8.90
2023-01-21T02:08:02.714Z,8.15
2023-01-21T02:11:44.689Z,8.45
2023-01-21T02:15:38.706Z,7.63
2023-01-21T02:19:48.053Z,8.43
2023-01-21T02:24:08.714Z,8.27
2023-01-21T02:27:56.446Z,8.50
2023-01-21T02:32:02.407Z,8.48
2023-01-21T02:36:22.823Z,8.23
2023-01-21T02:40:29.007Z,7.22
2023-01-21T02:44:32.904Z,7.05
2023-01-21T02:48:21.025Z,6.95
2023-01-21T02:52:02.996Z,7.28
2023-01-21T02:55:44.909Z,6.47
2023-01-21T02:59:26.921Z,6.78
2023-01-21T03:03:23.869Z,6.50
2023-01-21T03:07:21.385Z,6.68
2023-01-21T03:11:19.502Z,6.18
2023-01-21T03:15:27.516Z,6.25
2023-01-21T03:19:13.955Z,6.07
2023-01-21T03:23:02.718Z,6.03
2023-01-21T03:26:48.537Z,5.78
2023-01-21T03:30:34.092Z,6.37
2023-01-21T03:34:19.032Z,5.75
2023-01-21T03:38:13.861Z,5.43
2023-01-21T03:41:55.978Z,5.95
2023-01-21T03:45:47.593Z,6.43
2023-01-21T03:49:38.778Z,6.28
2023-01-21T03:53:20.941Z,6.65
2023-01-21T03:57:02.914Z,5.88
2023-01-21T04:00:46.811Z,5.47
2023-01-21T04:04:28.770Z,5.47
2023-01-21T04:08:10.694Z,5.85
2023-01-21T04:11:52.637Z,5.85
2023-01-21T04:15:34.578Z,5.80
2023-01-21T04:19:16.742Z,5.68
2023-01-21T04:22:58.722Z,5.55
2023-01-21T04:26:40.719Z,6.43
2023-01-21T04:30:22.641Z,5.95
2023-01-21T04:34:04.772Z,5.53
2023-01-21T04:37:46.753Z,5.80
2023-01-21T04:41:28.791Z,5.78
2023-01-21T04:45:11.276Z,5.07
2023-01-21T04:48:53.322Z,5.82
2023-01-21T04:52:35.221Z,5.40
2023-01-21T04:56:17.218Z,5.57
2023-01-21T04:59:59.129Z,5.28
2023-01-21T05:03:41.041Z,5.45
2023-01-21T05:07:23.195Z,5.32
2023-01-21T05:11:08.480Z,5.57
2023-01-21T05:14:54.478Z,5.35
2023-01-21T05:18:37.700Z,5.45
2023-01-21T05:22:19.858Z,5.05
2023-01-21T05:26:01.919Z,5.22
2023-01-21T05:29:43.836Z,5.70
2023-01-21T05:33:33.162Z,5.53
2023-01-21T05:37:15.158Z,5.30
2023-01-21T05:40:58.614Z,4.85
2023-01-21T05:44:40.658Z,4.78
2023-01-21T05:48:23.064Z,4.65
2023-01-21T05:52:05.238Z,4.95
2023-01-21T05:55:50.879Z,5.72
2023-01-21T05:59:32.791Z,5.05
2023-01-21T06:03:16.420Z,5.07
2023-01-21T06:06:58.364Z,5.13
2023-01-21T06:10:40.384Z,5.07
2023-01-21T06:14:22.245Z,5.28
2023-01-21T06:18:04.304Z,5.03
2023-01-21T06:21:46.252Z,5.28
2023-01-21T06:25:28.344Z,4.90
2023-01-21T06:29:10.235Z,4.90
2023-01-21T06:32:52.447Z,5.70
2023-01-21T06:36:34.431Z,5.32
2023-01-21T06:40:16.756Z,5.38
2023-01-21T06:43:58.983Z,5.15
2023-01-21T06:47:43.141Z,5.60
2023-01-21T06:51:25.200Z,5.55
2023-01-21T06:55:07.481Z,5.15
2023-01-21T06:58:49.474Z,5.78
2023-01-21T07:02:31.484Z,5.88
2023-01-21T07:06:13.502Z,5.88
2023-01-21T07:09:55.497Z,5.68
2023-01-21T07:13:37.567Z,5.07
2023-01-21T07:17:19.514Z,6.32
2023-01-21T07:21:01.517Z,5.72
2023-01-21T07:24:43.511Z,5.72
2023-01-21T07:28:25.402Z,5.75
2023-01-21T07:32:07.407Z,6.00
2023-01-21T07:35:50.097Z,7.15
2023-01-21T07:39:32.183Z,6.65
2023-01-21T07:43:14.126Z,6.57
2023-01-21T07:46:56.197Z,6.97
2023-01-21T07:50:38.182Z,6.53
2023-01-21T07:54:20.195Z,6.40
2023-01-21T07:58:02.137Z,6.65
2023-01-21T08:01:46.846Z,6.72
2023-01-21T08:05:28.822Z,6.88
2023-01-21T08:09:10.991Z,6.63
2023-01-21T08:12:53.003Z,6.55
2023-01-21T08:16:35.051Z,7.20
2023-01-21T08:20:17.048Z,7.50
2023-01-21T08:23:59.004Z,9.18
2023-01-21T08:27:41.019Z,8.75
2023-01-21T08:31:23.072Z,7.80
2023-01-21T08:35:05.481Z,7.75
2023-01-21T08:38:48.819Z,7.70
2023-01-21T08:42:30.894Z,8.13
2023-01-21T08:46:13.438Z,7.85
2023-01-21T08:49:55.427Z,7.85
2023-01-21T08:53:37.537Z,7.18
2023-01-21T08:57:19.469Z,7.28
2023-01-21T09:01:08.077Z,7.72
2023-01-21T09:04:50.685Z,8.23
2023-01-21T09:08:33.166Z,7.85
2023-01-21T09:12:15.112Z,8.02
2023-01-21T09:15:57.369Z,7.47
2023-01-21T09:19:39.359Z,7.00
2023-01-21T09:23:24.547Z,7.18
2023-01-21T09:27:07.420Z,7.22
2023-01-21T09:30:49.497Z,6.68
2023-01-21T09:34:33.978Z,7.13
2023-01-21T09:38:17.383Z,8.13
2023-01-21T09:41:59.434Z,9.00
2023-01-21T09:45:44.337Z,7.22
2023-01-21T09:49:43.936Z,8.00
2023-01-21T09:53:37.901Z,7.47
2023-01-21T09:57:40.890Z,6.28
2023-01-21T10:01:37.083Z,7.30
2023-01-21T10:05:24.817Z,7.43
2023-01-21T10:09:29.894Z,7.43
2023-01-21T10:13:35.833Z,7.60
2023-01-21T10:17:37.164Z,7.55
2023-01-21T10:21:37.081Z,6.45
2023-01-21T10:25:29.810Z,7.25
2023-01-21T10:29:18.400Z,7.20
2023-01-21T10:33:00.589Z,7.03
2023-01-21T10:36:42.495Z,7.80
2023-01-21T10:40:44.674Z,6.90
2023-01-21T10:44:41.827Z,7.55
2023-01-21T10:48:34.700Z,7.38
2023-01-21T10:52:20.585Z,6.93
2023-01-21T10:56:44.289Z,6.45
2023-01-21T11:00:34.158Z,7.30
2023-01-21T11:04:18.040Z,7.32
2023-01-21T11:08:00.178Z,8.30
2023-01-21T11:11:43.054Z,6.90
2023-01-21T11:15:25.254Z,6.28
2023-01-21T11:19:07.978Z,5.72
2023-01-21T11:22:50.624Z,6.22
2023-01-21T11:26:35.421Z,6.05
2023-01-21T11:30:50.786Z,6.15
2023-01-21T11:34:33.948Z,6.22
2023-01-21T11:38:35.148Z,6.03
2023-01-21T11:42:19.073Z,6.10
2023-01-21T11:46:01.023Z,6.55
2023-01-21T11:49:49.113Z,5.93
2023-01-21T11:53:31.175Z,6.68
2023-01-21T11:57:33.164Z,5.57
2023-01-21T12:01:22.125Z,6.40
2023-01-21T12:05:13.764Z,6.57
2023-01-21T12:09:00.994Z,7.03
2023-01-21T12:12:50.917Z,6.70
2023-01-21T12:16:44.430Z,7.18
2023-01-21T12:20:57.815Z,6.80
2023-01-21T12:24:52.581Z,6.80
2023-01-21T12:29:03.681Z,7.03
2023-01-21T12:33:21.100Z,6.25
2023-01-21T12:37:18.352Z,7.15
2023-01-21T12:45:04.885Z,7.22
2023-01-21T12:48:55.961Z,7.47
2023-01-21T12:52:55.816Z,6.75
2023-01-21T12:56:56.553Z,6.55
2023-01-21T13:00:43.337Z,6.80
2023-01-21T13:04:50.177Z,7.25
2023-01-21T13:08:45.041Z,6.97
2023-01-21T13:12:30.416Z,7.10
2023-01-21T13:16:12.980Z,7.47
2023-01-21T13:19:54.984Z,7.85
2023-01-21T13:23:45.306Z,8.35
2023-01-21T13:27:40.415Z,7.95
2023-01-21T13:31:37.562Z,9.15
2023-01-21T13:35:54.229Z,7.72
2023-01-21T13:39:52.927Z,8.75
2023-01-21T13:44:19.856Z,8.48
2023-01-21T13:48:32.283Z,8.20
2023-01-21T13:52:39.256Z,8.43
2023-01-21T13:56:24.233Z,7.95
2023-01-21T14:00:09.226Z,9.07
2023-01-21T14:04:27.091Z,8.63
2023-01-21T14:08:18.560Z,8.18
2023-01-21T14:12:15.876Z,9.30
2023-01-21T14:20:27.415Z,7.70
2023-01-21T14:24:38.423Z,8.30
2023-01-21T14:28:33.808Z,8.10
2023-01-21T14:32:59.884Z,8.13
2023-01-21T14:36:47.947Z,8.18
2023-01-21T14:40:33.546Z,8.32
2023-01-21T14:44:39.185Z,8.18
2023-01-21T14:48:41.881Z,7.63
2023-01-21T14:52:37.790Z,7.82
2023-01-21T14:56:31.784Z,8.27
2023-01-21T15:00:21.825Z,7.75
2023-01-21T15:04:08.448Z,7.88
2023-01-21T15:08:02.689Z,8.45
2023-01-21T15:11:44.766Z,7.72
2023-01-21T15:15:30.951Z,8.60
2023-01-21T15:19:12.982Z,9.02
2023-01-21T15:23:25.413Z,9.82
2023-01-21T15:27:27.984Z,8.60
2023-01-21T15:31:13.797Z,8.00
2023-01-21T15:35:03.462Z,8.43
2023-01-21T15:38:45.608Z,7.82
2023-01-21T15:43:04.707Z,8.57
2023-01-21T15:47:31.950Z,8.35
2023-01-21T15:51:20.497Z,7.60
2023-01-21T15:55:23.709Z,8.02
2023-01-21T15:59:26.813Z,7.72
2023-01-21T16:03:17.508Z,8.98
2023-01-21T16:07:14.638Z,7.15
2023-01-21T16:11:24.227Z,8.85
2023-01-21T16:15:23.861Z,7.97
2023-01-21T16:19:13.170Z,8.30
2023-01-21T16:22:59.664Z,9.15
2023-01-21T16:26:41.572Z,8.20
2023-01-21T16:30:31.960Z,8.23
2023-01-21T16:34:14.282Z,8.20
2023-01-21T16:37:57.064Z,8.32
2023-01-21T16:41:40.226Z,8.00
2023-01-21T16:45:25.965Z,8.13
2023-01-21T16:49:17.872Z,7.43
2023-01-21T16:53:06.121Z,7.75
2023-01-21T16:57:19.689Z,6.50
2023-01-21T17:01:06.598Z,6.53
2023-01-21T17:04:49.226Z,6.53
2023-01-21T17:08:31.308Z,6.43
2023-01-21T17:12:24.426Z,6.50
2023-01-21T17:16:07.863Z,6.13
2023-01-21T17:19:51.144Z,6.28
2023-01-21T17:23:52.757Z,6.70
2023-01-21T17:27:38.140Z,6.03
2023-01-21T17:31:35.632Z,6.15
2023-01-21T17:35:22.795Z,7.35
2023-01-21T17:39:06.987Z,7.13
2023-01-21T17:42:49.067Z,6.95
2023-01-21T17:46:31.422Z,6.00
2023-01-21T17:50:27.314Z,6.07
2023-01-21T17:54:22.630Z,6.40
2023-01-21T17:58:32.334Z,5.65
2023-01-21T18:02:19.182Z,6.00
2023-01-21T18:09:43.593Z,6.07
2023-01-21T18:13:25.640Z,6.32
2023-01-21T18:17:19.391Z,6.22
2023-01-21T18:21:02.040Z,6.05
2023-01-21T18:24:43.974Z,6.35
2023-01-21T18:28:28.890Z,5.93
2023-01-21T18:32:17.819Z,5.97
2023-01-21T18:36:00.460Z,6.93
2023-01-21T18:39:42.517Z,5.70
2023-01-21T18:43:25.580Z,6.50
2023-01-21T18:47:15.273Z,6.47
2023-01-21T18:50:57.310Z,6.18
2023-01-21T18:54:39.275Z,6.55
2023-01-21T18:58:21.683Z,6.50
2023-01-21T19:02:04.156Z,6.35
2023-01-21T19:05:50.016Z,7.43
2023-01-21T19:09:35.851Z,6.47
2023-01-21T19:13:17.961Z,6.97
2023-01-21T19:16:59.919Z,6.60
2023-01-21T19:20:42.806Z,7.00
2023-01-21T19:24:24.689Z,7.18
2023-01-21T19:28:06.676Z,7.70
2023-01-21T19:31:48.632Z,6.88
2023-01-21T19:35:45.434Z,7.15
2023-01-21T19:39:29.717Z,6.95
2023-01-21T19:43:16.903Z,6.70
2023-01-21T19:47:00.871Z,6.70
2023-01-21T19:50:43.027Z,6.97
2023-01-21T19:54:24.978Z,6.93
2023-01-21T19:58:15.990Z,5.75
2023-01-21T20:01:57.890Z,6.45
2023-01-21T20:05:39.992Z,6.35
2023-01-21T20:09:21.887Z,7.38
2023-01-21T20:13:03.925Z,7.05
2023-01-21T20:16:50.125Z,6.97
2023-01-21T20:20:33.055Z,9.57
2023-01-21T20:24:14.987Z,7.68
2023-01-21T20:27:59.334Z,7.22
2023-01-21T20:31:41.883Z,8.18
2023-01-21T20:35:27.258Z,7.65
2023-01-21T20:39:13.146Z,7.20
2023-01-21T20:42:56.898Z,7.73
2023-01-21T20:46:39.278Z,7.07
2023-01-21T20:50:24.070Z,6.65
2023-01-21T20:54:06.018Z,6.90
2023-01-21T20:57:48.187Z,6.30
2023-01-21T21:01:31.211Z,7.22
2023-01-21T21:05:14.700Z,5.75
2023-01-21T21:08:56.966Z,6.65
2023-01-21T21:12:38.860Z,7.40
2023-01-21T21:16:28.790Z,7.25
2023-01-21T21:20:29.247Z,6.80
2023-01-21T21:24:11.190Z,7.65
2023-01-21T21:27:54.278Z,6.55
2023-01-21T21:31:36.247Z,8.70
2023-01-21T21:35:30.656Z,8.40
2023-01-21T21:39:12.685Z,7.53
2023-01-21T21:43:13.366Z,8.85
2023-01-21T21:47:13.896Z,7.15
2023-01-21T21:50:58.722Z,7.82
2023-01-21T21:54:40.614Z,6.40
2023-01-21T21:58:22.552Z,5.82
2023-01-21T22:02:06.614Z,5.32
2023-01-21T22:05:53.769Z,5.88
2023-01-21T22:09:37.009Z,6.60
2023-01-21T22:13:18.918Z,6.15
2023-01-21T22:17:00.899Z,6.82
2023-01-21T22:20:42.920Z,6.47
2023-01-21T22:24:24.789Z,6.13
2023-01-21T22:28:06.741Z,6.28
2023-01-21T22:31:48.743Z,6.47
2023-01-21T22:35:30.778Z,7.20
2023-01-21T22:39:12.770Z,6.88
2023-01-21T22:42:54.725Z,6.15
2023-01-21T22:46:36.673Z,6.18
2023-01-21T22:50:18.716Z,6.53
2023-01-21T22:54:02.200Z,6.65
2023-01-21T22:57:44.131Z,6.57
2023-01-21T23:01:29.217Z,6.18
2023-01-21T23:05:11.270Z,6.05
2023-01-21T23:08:53.263Z,6.25
2023-01-21T23:12:35.221Z,5.88
2023-01-21T23:16:19.071Z,6.38
2023-01-21T23:20:01.131Z,5.43
2023-01-21T23:23:43.106Z,5.60
2023-01-21T23:27:25.110Z,5.57
2023-01-21T23:31:09.944Z,5.63
2023-01-21T23:34:51.917Z,5.38
2023-01-21T23:38:33.828Z,4.55
2023-01-21T23:42:15.875Z,4.93
2023-01-21T23:45:57.975Z,4.13
2023-01-21T23:49:39.934Z,4.65
2023-01-21T23:53:21.865Z,5.00
2023-01-21T23:57:03.809Z,5.10
